createdAt,value
2023-01-17T00:01:22.927Z,97670.34
2023-01-17T00:03:49.446Z,97676.56
2023-01-17T00:06:16.027Z,97657.78
2023-01-17T00:08:42.562Z,97672.16
2023-01-17T00:11:09.281Z,97677.22
2023-01-17T00:13:35.829Z,97637.28
2023-01-17T00:16:03.851Z,97676.06
2023-01-17T00:18:30.422Z,97688.94
2023-01-17T00:20:56.968Z,97696.44
2023-01-17T00:23:25.663Z,97699.53
2023-01-17T00:25:52.893Z,97706.69
2023-01-17T00:28:19.441Z,97720.38
2023-01-17T00:30:46.405Z,97726.13
2023-01-17T00:33:14.377Z,97712.56
2023-01-17T00:35:41.351Z,97691.03
2023-01-17T00:38:10.493Z,97725.75
2023-01-17T00:40:39.145Z,97721.00
2023-01-17T00:43:06.638Z,97712.72
2023-01-17T00:45:33.192Z,97730.78
2023-01-17T00:47:59.864Z,97739.28
2023-01-17T00:50:27.810Z,97744.81
2023-01-17T00:52:54.467Z,97748.22
2023-01-17T00:55:20.972Z,97753.25
2023-01-17T00:57:47.565Z,97748.88
2023-01-17T01:00:14.767Z,97763.22
2023-01-17T01:02:41.569Z,97760.16
2023-01-17T01:05:08.418Z,97765.03
2023-01-17T01:07:36.336Z,97762.41
2023-01-17T01:10:03.227Z,97764.66
2023-01-17T01:12:29.784Z,97774.13
2023-01-17T01:14:56.303Z,97770.53
2023-01-17T01:17:22.835Z,97775.47
2023-01-17T01:19:49.389Z,97781.84
2023-01-17T01:22:16.070Z,97780.84
2023-01-17T01:24:43.926Z,97775.13
2023-01-17T01:27:10.518Z,97793.22
2023-01-17T01:29:37.032Z,97798.63
2023-01-17T01:32:03.829Z,97798.97
2023-01-17T01:34:30.378Z,97780.81
2023-01-17T01:36:56.899Z,97814.28
2023-01-17T01:39:23.504Z,97834.00
2023-01-17T01:41:51.778Z,97833.03
2023-01-17T01:44:42.676Z,97828.78
2023-01-17T01:47:12.157Z,97844.13
2023-01-17T01:49:38.764Z,97833.16
2023-01-17T01:52:08.183Z,97843.31
2023-01-17T01:54:39.183Z,97839.84
2023-01-17T01:57:09.863Z,97837.56
2023-01-17T01:59:40.575Z,97844.75
2023-01-17T02:02:07.808Z,97850.59
2023-01-17T02:04:35.332Z,97857.13
2023-01-17T02:07:05.579Z,97847.50
2023-01-17T02:09:32.134Z,97870.50
2023-01-17T02:11:58.966Z,97875.72
2023-01-17T02:14:27.007Z,97866.09
2023-01-17T02:17:05.850Z,97877.94
2023-01-17T02:19:54.790Z,97859.47
2023-01-17T02:22:47.572Z,97879.28
2023-01-17T02:25:41.222Z,97893.41
2023-01-17T02:28:28.156Z,97897.44
2023-01-17T02:31:02.415Z,97903.19
2023-01-17T02:33:36.200Z,97907.91
2023-01-17T02:36:11.160Z,97912.59
2023-01-17T02:38:44.646Z,97909.63
2023-01-17T02:41:16.336Z,97911.47
2023-01-17T02:43:43.233Z,97922.50
2023-01-17T02:46:11.332Z,97926.56
2023-01-17T02:48:38.811Z,97923.00
2023-01-17T02:51:27.012Z,97928.38
2023-01-17T02:54:10.770Z,97925.16
2023-01-17T02:56:48.431Z,97922.75
2023-01-17T02:59:27.228Z,97929.13
2023-01-17T03:02:07.098Z,97937.75
2023-01-17T03:04:39.250Z,97943.88
2023-01-17T03:07:11.095Z,97943.88
2023-01-17T03:09:38.944Z,97953.13
2023-01-17T03:12:06.277Z,97937.13
2023-01-17T03:14:32.860Z,97920.44
2023-01-17T03:17:00.788Z,97950.81
2023-01-17T03:19:27.428Z,97962.56
2023-01-17T03:21:54.170Z,97964.72
2023-01-17T03:24:21.018Z,97967.25
2023-01-17T03:26:47.772Z,97955.41
2023-01-17T03:29:15.031Z,97957.50
2023-01-17T03:31:41.600Z,97958.19
2023-01-17T03:34:09.523Z,97968.63
2023-01-17T03:36:36.240Z,97970.41
2023-01-17T03:39:02.858Z,97967.25
2023-01-17T03:41:29.526Z,97966.22
2023-01-17T03:43:56.110Z,97973.06
2023-01-17T03:46:24.643Z,97971.16
2023-01-17T03:48:51.569Z,97971.28
2023-01-17T03:51:20.202Z,97979.53
2023-01-17T03:53:47.108Z,97974.25
2023-01-17T03:56:14.220Z,97981.25
2023-01-17T03:58:41.679Z,97984.59
2023-01-17T04:01:08.720Z,97967.38
2023-01-17T04:03:35.589Z,97981.56
2023-01-17T04:06:02.155Z,97995.28
2023-01-17T04:08:30.208Z,97997.44
2023-01-17T04:10:56.786Z,97994.81
2023-01-17T04:13:23.651Z,98000.94
2023-01-17T04:15:51.106Z,97999.16
2023-01-17T04:18:20.205Z,97996.03
2023-01-17T04:20:47.226Z,97996.19
2023-01-17T04:23:13.961Z,97994.47
2023-01-17T04:25:41.914Z,97981.13
2023-01-17T04:28:10.120Z,97992.50
2023-01-17T04:30:37.094Z,97992.09
2023-01-17T04:33:05.220Z,97968.94
2023-01-17T04:35:32.479Z,97990.28
2023-01-17T04:37:59.186Z,97989.31
2023-01-17T04:40:25.857Z,98000.78
2023-01-17T04:42:53.789Z,97997.50
2023-01-17T04:45:20.352Z,97998.09
2023-01-17T04:47:46.945Z,98007.53
2023-01-17T04:50:13.872Z,98005.41
2023-01-17T04:52:40.537Z,98007.19
2023-01-17T04:55:07.910Z,98005.13
2023-01-17T04:57:34.593Z,98005.63
2023-01-17T05:00:02.748Z,98008.91
2023-01-17T05:02:29.436Z,98011.31
2023-01-17T05:04:55.966Z,98006.25
2023-01-17T05:07:22.636Z,98023.53
2023-01-17T05:09:49.148Z,98018.94
2023-01-17T05:12:15.842Z,98012.78
2023-01-17T05:14:42.420Z,98014.41
2023-01-17T05:17:10.692Z,98015.38
2023-01-17T05:19:37.278Z,98014.75
2023-01-17T05:22:04.303Z,98016.34
2023-01-17T05:24:30.953Z,98015.94
2023-01-17T05:26:58.238Z,98018.16
2023-01-17T05:29:24.771Z,98016.34
2023-01-17T05:31:51.326Z,98017.72
2023-01-17T05:34:19.402Z,98013.09
2023-01-17T05:36:46.004Z,98013.69
2023-01-17T05:39:12.526Z,98021.66
2023-01-17T05:41:39.127Z,98017.28
2023-01-17T05:44:05.755Z,98019.88
2023-01-17T05:46:32.454Z,98026.28
2023-01-17T05:48:58.987Z,98024.25
2023-01-17T05:51:26.998Z,98033.56
2023-01-17T05:53:53.584Z,98001.47
2023-01-17T05:56:20.541Z,98032.22
2023-01-17T05:58:47.100Z,98031.72
2023-01-17T06:01:13.662Z,98035.19
2023-01-17T06:03:40.188Z,98000.22
2023-01-17T06:06:07.343Z,98041.53
2023-01-17T06:08:35.334Z,98046.97
2023-01-17T06:11:01.908Z,98047.25
2023-01-17T06:13:28.675Z,98055.75
2023-01-17T06:15:55.377Z,98050.34
2023-01-17T06:18:22.143Z,98052.31
2023-01-17T06:20:52.644Z,98050.34
2023-01-17T06:23:19.158Z,98039.06
2023-01-17T06:25:47.930Z,98049.38
2023-01-17T06:28:17.064Z,98060.00
2023-01-17T06:30:44.287Z,98061.81
2023-01-17T06:33:11.203Z,98053.75
2023-01-17T06:35:37.782Z,98068.06
2023-01-17T06:38:04.524Z,98044.63
2023-01-17T06:40:31.257Z,98069.94
2023-01-17T06:43:01.306Z,98067.41
2023-01-17T06:45:28.150Z,98073.72
2023-01-17T06:47:54.895Z,98077.44
2023-01-17T06:50:22.019Z,98073.50
2023-01-17T06:52:55.240Z,98071.84
2023-01-17T06:55:22.601Z,98063.69
2023-01-17T06:57:49.820Z,98095.03
2023-01-17T07:00:18.953Z,98083.56
2023-01-17T07:02:48.531Z,98081.69
2023-01-17T07:05:15.235Z,98074.16
2023-01-17T07:07:41.752Z,98089.06
2023-01-17T07:10:09.424Z,98084.97
2023-01-17T07:12:35.974Z,98084.28
2023-01-17T07:15:02.606Z,98080.19
2023-01-17T07:17:30.716Z,98080.78
2023-01-17T07:19:57.521Z,98079.69
2023-01-17T07:22:24.053Z,98083.69
2023-01-17T07:24:50.712Z,98065.25
2023-01-17T07:27:17.259Z,98085.66
2023-01-17T07:29:44.004Z,98084.03
2023-01-17T07:32:10.575Z,98091.84
2023-01-17T07:34:38.770Z,98089.66
2023-01-17T07:37:05.318Z,98095.28
2023-01-17T07:39:31.999Z,98086.00
2023-01-17T07:41:58.518Z,98098.44
2023-01-17T07:44:25.122Z,98104.59
2023-01-17T07:46:51.706Z,98103.66
2023-01-17T07:49:18.315Z,98098.59
2023-01-17T07:51:47.810Z,98102.00
2023-01-17T07:54:14.490Z,98101.06
2023-01-17T07:56:41.010Z,98101.75
2023-01-17T07:59:07.828Z,98093.13
2023-01-17T08:01:34.696Z,98100.50
2023-01-17T08:04:01.379Z,98098.03
2023-01-17T08:06:28.724Z,98097.38
2023-01-17T08:08:56.722Z,98093.78
2023-01-17T08:11:23.232Z,98096.25
2023-01-17T08:13:49.828Z,98095.69
2023-01-17T08:16:16.526Z,98076.97
2023-01-17T08:18:43.230Z,98097.75
2023-01-17T08:21:14.545Z,98098.59
2023-01-17T08:23:41.259Z,98093.25
2023-01-17T08:26:09.360Z,98060.06
2023-01-17T08:28:36.005Z,98052.38
2023-01-17T08:31:06.843Z,98089.78
2023-01-17T08:33:33.486Z,98076.88
2023-01-17T08:36:00.207Z,98080.81
2023-01-17T08:38:27.099Z,98088.06
2023-01-17T08:40:53.767Z,98089.69
2023-01-17T08:43:22.085Z,98094.78
2023-01-17T08:45:49.981Z,98090.09
2023-01-17T08:48:16.615Z,98090.91
2023-01-17T08:50:43.139Z,98092.69
2023-01-17T08:53:09.776Z,98092.41
2023-01-17T08:55:36.416Z,98097.19
2023-01-17T08:58:03.013Z,98081.44
2023-01-17T09:00:30.961Z,98103.16
2023-01-17T09:02:57.540Z,98095.06
2023-01-17T09:05:24.194Z,98089.16
2023-01-17T09:07:51.094Z,98087.75
2023-01-17T09:10:17.693Z,98096.59
2023-01-17T09:12:44.314Z,98094.91
2023-01-17T09:15:11.420Z,98103.47
2023-01-17T09:17:39.593Z,98096.88
2023-01-17T09:20:07.894Z,98071.84
2023-01-17T09:22:34.582Z,98096.06
2023-01-17T09:25:01.231Z,98094.09
2023-01-17T09:27:27.854Z,98085.38
2023-01-17T09:29:54.527Z,98088.44
2023-01-17T09:32:21.121Z,98091.28
2023-01-17T09:34:48.986Z,98095.16
2023-01-17T09:37:15.642Z,98092.59
2023-01-17T09:39:42.312Z,98085.59
2023-01-17T09:42:20.648Z,98064.84
2023-01-17T09:44:49.000Z,98089.38
2023-01-17T09:47:20.271Z,98093.78
2023-01-17T09:49:48.827Z,98098.03
2023-01-17T09:52:19.650Z,98094.09
2023-01-17T09:54:47.746Z,98101.31
2023-01-17T09:57:27.348Z,98099.41
2023-01-17T10:00:05.054Z,98116.72
2023-01-17T10:02:50.989Z,98112.19
2023-01-17T10:05:37.011Z,98114.13
2023-01-17T10:08:16.462Z,98094.19
2023-01-17T10:10:53.117Z,98109.81
2023-01-17T10:13:34.350Z,98112.44
2023-01-17T10:16:18.732Z,98109.03
2023-01-17T10:19:10.347Z,98108.81
2023-01-17T10:22:08.701Z,98108.19
2023-01-17T10:24:57.219Z,98098.41
2023-01-17T10:27:28.767Z,98109.13
2023-01-17T10:29:55.485Z,98105.38
2023-01-17T10:32:25.046Z,98105.28
2023-01-17T10:34:53.171Z,98084.03
2023-01-17T10:37:26.215Z,98108.56
2023-01-17T10:39:55.903Z,98108.34
2023-01-17T10:42:27.783Z,98110.97
2023-01-17T10:45:04.337Z,98112.97
2023-01-17T10:47:34.157Z,98091.72
2023-01-17T10:50:04.155Z,98085.91
2023-01-17T10:52:45.089Z,98103.03
2023-01-17T10:55:24.895Z,98093.22
2023-01-17T10:57:53.764Z,98085.38
2023-01-17T11:00:39.751Z,98101.97
2023-01-17T11:03:09.647Z,98090.50
2023-01-17T11:05:36.341Z,98098.38
2023-01-17T11:08:06.394Z,98100.22
2023-01-17T11:10:36.197Z,98093.53
2023-01-17T11:13:04.806Z,98098.78
2023-01-17T11:15:33.568Z,98092.44
2023-01-17T11:18:06.964Z,98093.41
2023-01-17T11:20:36.341Z,98087.72
2023-01-17T11:23:14.607Z,98044.03
2023-01-17T11:25:51.918Z,98073.31
2023-01-17T11:28:23.668Z,98073.63
2023-01-17T11:30:52.978Z,98080.78
2023-01-17T11:33:33.984Z,98081.31
2023-01-17T11:36:00.865Z,98070.81
2023-01-17T11:38:28.922Z,98020.44
2023-01-17T11:40:55.734Z,98074.44
2023-01-17T11:43:24.137Z,98059.56
2023-01-17T11:46:03.973Z,98070.63
2023-01-17T11:48:36.301Z,98071.53
2023-01-17T11:51:04.612Z,98065.56
2023-01-17T11:53:36.847Z,98071.69
2023-01-17T11:56:05.643Z,98070.31
2023-01-17T11:58:34.655Z,98063.38
2023-01-17T12:01:19.093Z,98034.94
2023-01-17T12:04:07.043Z,98058.22
2023-01-17T12:06:56.767Z,98039.03
2023-01-17T12:09:32.107Z,98058.91
2023-01-17T12:12:07.252Z,98054.94
2023-01-17T12:14:44.166Z,98040.44
2023-01-17T12:17:27.654Z,98047.44
2023-01-17T12:19:59.596Z,98045.44
2023-01-17T12:22:34.798Z,98040.63
2023-01-17T12:25:19.057Z,98041.84
2023-01-17T12:27:57.420Z,98039.19
2023-01-17T12:30:36.401Z,98029.94
2023-01-17T12:33:18.731Z,98029.78
2023-01-17T12:35:50.095Z,98031.84
2023-01-17T12:38:32.156Z,98029.31
2023-01-17T12:41:09.827Z,98022.78
2023-01-17T12:43:39.952Z,98028.59
2023-01-17T12:46:12.004Z,98023.94
2023-01-17T12:48:38.766Z,98014.97
2023-01-17T12:51:11.377Z,98014.56
2023-01-17T12:53:42.170Z,98009.28
2023-01-17T12:56:18.709Z,98007.41
2023-01-17T12:58:48.786Z,98003.19
2023-01-17T13:01:23.601Z,98005.75
2023-01-17T13:04:00.333Z,97996.59
2023-01-17T13:06:32.381Z,98007.03
2023-01-17T13:09:02.175Z,97993.97
2023-01-17T13:11:35.616Z,97999.44
2023-01-17T13:14:02.250Z,97996.81
2023-01-17T13:16:35.279Z,97997.06
2023-01-17T13:19:11.188Z,97969.00
2023-01-17T13:21:37.963Z,97996.06
2023-01-17T13:24:25.551Z,98007.41
2023-01-17T13:27:31.190Z,98016.63
2023-01-17T13:30:28.700Z,98018.28
2023-01-17T13:33:16.451Z,98015.91
2023-01-17T13:35:58.308Z,98010.44
2023-01-17T13:38:34.503Z,97986.13
2023-01-17T13:41:11.326Z,97984.34
2023-01-17T13:43:42.341Z,97999.94
2023-01-17T13:46:08.957Z,98008.78
2023-01-17T13:48:37.100Z,98019.78
2023-01-17T13:51:04.645Z,98010.72
2023-01-17T13:53:49.036Z,98000.53
2023-01-17T13:56:28.104Z,98002.50
2023-01-17T13:58:58.833Z,98008.75
2023-01-17T14:01:50.515Z,98012.59
2023-01-17T14:04:17.202Z,97993.59
2023-01-17T14:06:44.806Z,98014.88
2023-01-17T14:09:16.400Z,98010.22
2023-01-17T14:11:59.439Z,98016.81
2023-01-17T14:14:44.187Z,98010.66
2023-01-17T14:17:47.485Z,98014.56
2023-01-17T14:20:49.659Z,98018.19
2023-01-17T14:23:42.382Z,98023.13
2023-01-17T14:26:22.155Z,98019.75
2023-01-17T14:28:49.128Z,98023.53
2023-01-17T14:31:17.479Z,98027.16
2023-01-17T14:33:44.154Z,98021.75
2023-01-17T14:36:14.544Z,98019.50
2023-01-17T14:38:43.137Z,98022.78
2023-01-17T14:41:14.102Z,98017.19
2023-01-17T14:43:42.817Z,98017.53
2023-01-17T14:46:20.951Z,98017.38
2023-01-17T14:48:47.650Z,98016.56
2023-01-17T14:51:19.073Z,98009.88
2023-01-17T14:53:53.446Z,98017.72
2023-01-17T14:56:20.263Z,97998.47
2023-01-17T14:58:46.833Z,98023.78
2023-01-17T15:01:15.508Z,98021.16
2023-01-17T15:03:45.875Z,98013.78
2023-01-17T15:06:17.135Z,98021.81
2023-01-17T15:08:43.974Z,98014.28
2023-01-17T15:11:18.153Z,98015.22
2023-01-17T15:13:48.111Z,98018.44
2023-01-17T15:16:21.170Z,98018.28
2023-01-17T15:18:50.309Z,98014.31
2023-01-17T15:21:19.509Z,98017.19
2023-01-17T15:23:48.290Z,98014.72
2023-01-17T15:26:17.776Z,98000.28
2023-01-17T15:28:45.042Z,98016.91
2023-01-17T15:31:15.340Z,98020.31
2023-01-17T15:33:44.411Z,98022.84
2023-01-17T15:36:23.721Z,98017.59
2023-01-17T15:38:55.487Z,98003.47
2023-01-17T15:41:24.890Z,98019.41
2023-01-17T15:43:51.439Z,98018.03
2023-01-17T15:46:23.611Z,98019.25
2023-01-17T15:48:50.371Z,98014.41
2023-01-17T15:51:30.234Z,98022.47
2023-01-17T15:53:56.890Z,98025.31
2023-01-17T15:56:30.212Z,98030.88
2023-01-17T15:59:29.649Z,98041.34
2023-01-17T16:01:57.679Z,98038.97
2023-01-17T16:04:32.135Z,98033.59
2023-01-17T16:07:17.357Z,98045.47
2023-01-17T16:09:44.496Z,98048.16
2023-01-17T16:12:11.393Z,98029.88
2023-01-17T16:14:56.407Z,98041.25
2023-01-17T16:17:25.013Z,98048.28
2023-01-17T16:19:51.589Z,98053.06
2023-01-17T16:22:19.556Z,98059.66
2023-01-17T16:24:46.169Z,98048.03
2023-01-17T16:27:12.750Z,98055.59
2023-01-17T16:29:39.332Z,98034.31
2023-01-17T16:32:06.321Z,98046.09
2023-01-17T16:34:32.931Z,98059.53
2023-01-17T16:36:59.614Z,98062.78
2023-01-17T16:39:27.564Z,98063.22
2023-01-17T16:41:59.964Z,98049.53
2023-01-17T16:44:26.585Z,98059.13
2023-01-17T16:46:53.347Z,98062.56
2023-01-17T16:49:20.035Z,98065.81
2023-01-17T16:51:46.891Z,98061.88
2023-01-17T16:54:13.789Z,98067.47
2023-01-17T16:56:41.975Z,98059.00
2023-01-17T16:59:08.596Z,98055.69
2023-01-17T17:01:35.208Z,98076.91
2023-01-17T17:04:02.131Z,98082.09
2023-01-17T17:06:30.053Z,98086.47
2023-01-17T17:08:58.811Z,98082.34
2023-01-17T17:11:25.465Z,98089.56
2023-01-17T17:13:53.501Z,98089.25
2023-01-17T17:16:22.480Z,98066.31
2023-01-17T17:18:55.227Z,98093.03
2023-01-17T17:21:21.978Z,98085.78
2023-01-17T17:23:51.399Z,98101.94
2023-01-17T17:26:17.997Z,98099.88
2023-01-17T17:28:44.502Z,98103.09
2023-01-17T17:31:12.607Z,98103.81
2023-01-17T17:33:39.216Z,98108.69
2023-01-17T17:36:07.895Z,98113.56
2023-01-17T17:38:34.478Z,98119.41
2023-01-17T17:41:08.308Z,98110.34
2023-01-17T17:43:36.463Z,98127.28
2023-01-17T17:46:03.139Z,98108.38
2023-01-17T17:48:31.090Z,98134.78
2023-01-17T17:50:59.733Z,98125.50
2023-01-17T17:53:27.441Z,98131.19
2023-01-17T17:55:54.024Z,98144.03
2023-01-17T17:58:21.135Z,98142.19
2023-01-17T18:00:47.745Z,98141.31
2023-01-17T18:03:14.522Z,98150.28
2023-01-17T18:05:42.736Z,98146.56
2023-01-17T18:08:09.287Z,98152.13
2023-01-17T18:10:35.868Z,98149.91
2023-01-17T18:13:02.597Z,98140.78
2023-01-17T18:15:29.187Z,98154.06
2023-01-17T18:17:55.821Z,98158.56
2023-01-17T18:20:22.749Z,98140.47
2023-01-17T18:22:50.722Z,98160.56
2023-01-17T18:25:17.221Z,98134.38
2023-01-17T18:27:43.826Z,98135.97
2023-01-17T18:30:11.303Z,98145.00
2023-01-17T18:32:37.962Z,98167.44
2023-01-17T18:35:05.190Z,98171.69
2023-01-17T18:37:31.781Z,98146.81
2023-01-17T18:39:59.990Z,98168.03
2023-01-17T18:42:26.627Z,98159.44
2023-01-17T18:44:53.148Z,98166.78
2023-01-17T18:47:19.920Z,98172.06
2023-01-17T18:49:46.459Z,98152.31
2023-01-17T18:52:13.203Z,98156.56
2023-01-17T18:54:39.720Z,98177.00
2023-01-17T18:57:07.755Z,98182.09
2023-01-17T18:59:34.389Z,98176.56
2023-01-17T19:02:01.077Z,98172.34
2023-01-17T19:04:27.612Z,98178.38
2023-01-17T19:06:54.196Z,98183.53
2023-01-17T19:09:20.791Z,98179.63
2023-01-17T19:11:47.864Z,98182.91
2023-01-17T19:14:15.868Z,98182.91
2023-01-17T19:16:43.138Z,98181.28
2023-01-17T19:19:12.375Z,98193.06
2023-01-17T19:21:39.254Z,98187.78
2023-01-17T19:24:06.347Z,98202.81
2023-01-17T19:26:32.949Z,98204.94
2023-01-17T19:28:59.841Z,98207.53
2023-01-17T19:31:29.958Z,98215.06
2023-01-17T19:33:58.478Z,98219.69
2023-01-17T19:36:26.752Z,98202.88
2023-01-17T19:39:03.942Z,98221.09
2023-01-17T19:41:31.505Z,98234.13
2023-01-17T19:44:00.520Z,98230.88
2023-01-17T19:46:29.345Z,98232.25
2023-01-17T19:48:57.391Z,98236.03
2023-01-17T19:51:25.175Z,98237.09
2023-01-17T19:53:51.864Z,98233.44
2023-01-17T19:56:20.182Z,98238.03
2023-01-17T19:58:47.730Z,98237.34
2023-01-17T20:01:16.598Z,98241.44
2023-01-17T20:03:46.492Z,98242.25
2023-01-17T20:06:15.615Z,98228.03
2023-01-17T20:08:42.250Z,98251.31
2023-01-17T20:11:11.593Z,98247.91
2023-01-17T20:13:38.087Z,98252.63
2023-01-17T20:16:07.200Z,98258.16
2023-01-17T20:18:34.654Z,98248.25
2023-01-17T20:21:07.516Z,98254.13
2023-01-17T20:23:34.559Z,98268.69
2023-01-17T20:26:01.658Z,98237.59
2023-01-17T20:28:30.058Z,98252.22
2023-01-17T20:30:56.972Z,98266.00
2023-01-17T20:33:24.228Z,98254.56
2023-01-17T20:36:04.860Z,98261.75
2023-01-17T20:38:38.439Z,98261.84
2023-01-17T20:41:05.192Z,98272.19
2023-01-17T20:43:31.787Z,98264.91
2023-01-17T20:45:58.344Z,98279.22
2023-01-17T20:48:24.984Z,98276.91
2023-01-17T20:50:51.553Z,98279.69
2023-01-17T20:53:18.254Z,98274.63
2023-01-17T20:55:46.220Z,98273.78
2023-01-17T20:58:13.056Z,98284.50
2023-01-17T21:00:39.618Z,98271.31
2023-01-17T21:03:06.284Z,98290.72
2023-01-17T21:05:32.853Z,98288.47
2023-01-17T21:07:59.751Z,98281.88
2023-01-17T21:10:26.299Z,98255.72
2023-01-17T21:12:54.227Z,98286.47
2023-01-17T21:15:20.790Z,98291.94
2023-01-17T21:17:47.543Z,98272.41
2023-01-17T21:20:14.305Z,98262.94
2023-01-17T21:22:41.062Z,98299.31
2023-01-17T21:25:08.497Z,98288.00
2023-01-17T21:27:35.189Z,98311.09
2023-01-17T21:30:03.590Z,98283.66
2023-01-17T21:32:30.171Z,98267.06
2023-01-17T21:34:56.731Z,98314.81
2023-01-17T21:37:23.587Z,98309.06
2023-01-17T21:39:50.157Z,98298.44
2023-01-17T21:42:16.835Z,98306.47
2023-01-17T21:44:43.408Z,98315.78
2023-01-17T21:47:11.424Z,98305.75
2023-01-17T21:49:37.958Z,98317.53
2023-01-17T21:52:04.791Z,98316.56
2023-01-17T21:54:31.784Z,98314.22
2023-01-17T21:56:58.398Z,98285.56
2023-01-17T21:59:24.981Z,98245.44
2023-01-17T22:01:51.561Z,98322.25
2023-01-17T22:04:19.448Z,98330.72
2023-01-17T22:06:46.096Z,98335.78
2023-01-17T22:09:12.651Z,98333.38
2023-01-17T22:11:39.207Z,98328.78
2023-01-17T22:14:06.256Z,98328.16
2023-01-17T22:16:32.902Z,98336.53
2023-01-17T22:18:59.487Z,98300.56
2023-01-17T22:21:28.769Z,98332.75
2023-01-17T22:23:56.945Z,98341.50
2023-01-17T22:26:25.951Z,98350.31
2023-01-17T22:28:53.299Z,98343.50
2023-01-17T22:31:22.251Z,98336.69
2023-01-17T22:33:53.555Z,98340.19
2023-01-17T22:36:20.783Z,98290.91
2023-01-17T22:38:49.166Z,98345.41
2023-01-17T22:41:18.005Z,98343.16
2023-01-17T22:43:46.360Z,98319.88
2023-01-17T22:46:15.164Z,98343.28
2023-01-17T22:48:42.290Z,98311.22
2023-01-17T22:51:10.862Z,98340.09
2023-01-17T22:53:40.131Z,98345.34
2023-01-17T22:56:10.595Z,98344.97
2023-01-17T22:58:37.197Z,98339.19
2023-01-17T23:01:04.859Z,98324.34
2023-01-17T23:03:31.866Z,98292.56
2023-01-17T23:06:07.882Z,98307.19
2023-01-17T23:08:34.828Z,98330.63
2023-01-17T23:11:01.621Z,98346.50
2023-01-17T23:13:29.607Z,98311.16
2023-01-17T23:15:56.240Z,98338.97
2023-01-17T23:18:22.933Z,98329.78
2023-01-17T23:20:49.496Z,98340.13
2023-01-17T23:23:16.125Z,98324.56
2023-01-17T23:25:42.696Z,98326.41
2023-01-17T23:28:09.517Z,98332.81
2023-01-17T23:30:39.012Z,98341.44
2023-01-17T23:33:07.520Z,98336.44
2023-01-17T23:35:41.506Z,98339.78
2023-01-17T23:38:12.012Z,98320.91
2023-01-17T23:40:39.455Z,98343.97
2023-01-17T23:43:06.715Z,98346.03
2023-01-17T23:45:34.535Z,98340.34
2023-01-17T23:48:02.788Z,98333.25
2023-01-17T23:50:29.321Z,98333.25
2023-01-17T23:52:56.245Z,98308.63
2023-01-17T23:55:23.132Z,98321.63
2023-01-17T23:57:50.428Z,98325.84
